sensor_id;sensor_type;location;lat;lon;timestamp;P1;durP1;ratioP1;P2;durP2;ratioP2
13445;SDS011;6795;51.232;3.764;2023-04-03T00:01:22;26.47;;;20.77;;
13445;SDS011;6795;51.232;3.764;2023-04-03T00:03:50;30.37;;;21.50;;
13445;SDS011;6795;51.232;3.764;2023-04-03T00:06:20;23.67;;;20.23;;
13445;SDS011;6795;51.232;3.764;2023-04-03T00:08:50;26.47;;;20.70;;
13445;SDS011;6795;51.232;3.764;2023-04-03T00:11:18;30.40;;;21.17;;
13445;SDS011;6795;51.232;3.764;2023-04-03T00:13:48;24.87;;;20.90;;
13445;SDS011;6795;51.232;3.764;2023-04-03T00:16:16;28.33;;;22.80;;
13445;SDS011;6795;51.232;3.764;2023-04-03T00:18:45;30.23;;;21.93;;
13445;SDS011;6795;51.232;3.764;2023-04-03T00:21:13;27.77;;;23.00;;
13445;SDS011;6795;51.232;3.764;2023-04-03T00:23:43;27.80;;;22.50;;
13445;SDS011;6795;51.232;3.764;2023-04-03T00:26:12;27.47;;;22.10;;
13445;SDS011;6795;51.232;3.764;2023-04-03T00:28:40;27.67;;;21.70;;
13445;SDS011;6795;51.232;3.764;2023-04-03T00:31:09;29.17;;;21.90;;
13445;SDS011;6795;51.232;3.764;2023-04-03T00:33:37;25.63;;;21.93;;
13445;SDS011;6795;51.232;3.764;2023-04-03T00:36:06;25.67;;;21.63;;
13445;SDS011;6795;51.232;3.764;2023-04-03T00:38:36;24.47;;;21.20;;
13445;SDS011;6795;51.232;3.764;2023-04-03T00:41:06;25.20;;;21.00;;
13445;SDS011;6795;51.232;3.764;2023-04-03T00:43:34;26.03;;;21.97;;
13445;SDS011;6795;51.232;3.764;2023-04-03T00:46:03;27.07;;;21.70;;
13445;SDS011;6795;51.232;3.764;2023-04-03T00:48:32;28.47;;;21.80;;
13445;SDS011;6795;51.232;3.764;2023-04-03T00:51:04;25.73;;;21.87;;
13445;SDS011;6795;51.232;3.764;2023-04-03T00:53:35;29.10;;;22.13;;
13445;SDS011;6795;51.232;3.764;2023-04-03T00:56:09;26.03;;;22.10;;
13445;SDS011;6795;51.232;3.764;2023-04-03T00:58:41;29.60;;;23.13;;
13445;SDS011;6795;51.232;3.764;2023-04-03T01:01:14;32.30;;;22.40;;
13445;SDS011;6795;51.232;3.764;2023-04-03T01:03:48;31.27;;;23.83;;
13445;SDS011;6795;51.232;3.764;2023-04-03T01:06:20;36.40;;;25.17;;
13445;SDS011;6795;51.232;3.764;2023-04-03T01:08:52;36.20;;;24.83;;
13445;SDS011;6795;51.232;3.764;2023-04-03T01:11:23;32.30;;;24.00;;
13445;SDS011;6795;51.232;3.764;2023-04-03T01:13:51;30.07;;;23.87;;
13445;SDS011;6795;51.232;3.764;2023-04-03T01:16:20;35.63;;;24.80;;
13445;SDS011;6795;51.232;3.764;2023-04-03T01:18:48;37.27;;;25.03;;
13445;SDS011;6795;51.232;3.764;2023-04-03T01:24:34;35.20;;;25.93;;
13445;SDS011;6795;51.232;3.764;2023-04-03T01:27:07;35.70;;;25.30;;
13445;SDS011;6795;51.232;3.764;2023-04-03T01:29:38;36.70;;;25.60;;
13445;SDS011;6795;51.232;3.764;2023-04-03T01:32:11;34.00;;;25.90;;
13445;SDS011;6795;51.232;3.764;2023-04-03T01:34:39;38.90;;;27.47;;
13445;SDS011;6795;51.232;3.764;2023-04-03T01:37:08;36.43;;;26.40;;
13445;SDS011;6795;51.232;3.764;2023-04-03T01:39:36;31.70;;;25.27;;
13445;SDS011;6795;51.232;3.764;2023-04-03T01:42:04;33.93;;;27.10;;
13445;SDS011;6795;51.232;3.764;2023-04-03T01:44:33;35.83;;;28.80;;
13445;SDS011;6795;51.232;3.764;2023-04-03T01:47:01;36.63;;;26.97;;
13445;SDS011;6795;51.232;3.764;2023-04-03T01:49:34;35.47;;;28.30;;
13445;SDS011;6795;51.232;3.764;2023-04-03T01:52:02;34.53;;;26.53;;
13445;SDS011;6795;51.232;3.764;2023-04-03T01:54:31;34.97;;;26.83;;
13445;SDS011;6795;51.232;3.764;2023-04-03T01:56:59;31.60;;;26.70;;
13445;SDS011;6795;51.232;3.764;2023-04-03T01:59:28;34.30;;;26.83;;
13445;SDS011;6795;51.232;3.764;2023-04-03T02:01:56;36.97;;;26.40;;
13445;SDS011;6795;51.232;3.764;2023-04-03T02:04:24;41.10;;;27.03;;
13445;SDS011;6795;51.232;3.764;2023-04-03T02:06:54;36.03;;;27.20;;
13445;SDS011;6795;51.232;3.764;2023-04-03T02:09:23;38.80;;;25.47;;
13445;SDS011;6795;51.232;3.764;2023-04-03T02:11:52;35.97;;;25.60;;
13445;SDS011;6795;51.232;3.764;2023-04-03T02:14:21;38.20;;;26.57;;
13445;SDS011;6795;51.232;3.764;2023-04-03T02:16:50;34.03;;;27.40;;
13445;SDS011;6795;51.232;3.764;2023-04-03T02:19:18;37.63;;;27.20;;
13445;SDS011;6795;51.232;3.764;2023-04-03T02:21:47;34.43;;;27.83;;
13445;SDS011;6795;51.232;3.764;2023-04-03T02:24:16;38.80;;;26.77;;
13445;SDS011;6795;51.232;3.764;2023-04-03T02:26:45;33.90;;;25.37;;
13445;SDS011;6795;51.232;3.764;2023-04-03T02:29:13;40.87;;;27.63;;
13445;SDS011;6795;51.232;3.764;2023-04-03T02:31:42;35.20;;;28.50;;
13445;SDS011;6795;51.232;3.764;2023-04-03T02:34:10;34.43;;;26.90;;
13445;SDS011;6795;51.232;3.764;2023-04-03T02:36:39;33.93;;;26.13;;
13445;SDS011;6795;51.232;3.764;2023-04-03T02:39:07;36.73;;;27.57;;
13445;SDS011;6795;51.232;3.764;2023-04-03T02:41:37;41.63;;;28.87;;
13445;SDS011;6795;51.232;3.764;2023-04-03T02:44:06;34.00;;;26.30;;
13445;SDS011;6795;51.232;3.764;2023-04-03T02:46:36;45.57;;;30.10;;
13445;SDS011;6795;51.232;3.764;2023-04-03T02:49:05;41.50;;;30.57;;
13445;SDS011;6795;51.232;3.764;2023-04-03T02:51:33;39.97;;;30.27;;
13445;SDS011;6795;51.232;3.764;2023-04-03T02:54:02;46.03;;;31.30;;
13445;SDS011;6795;51.232;3.764;2023-04-03T02:56:30;46.70;;;32.43;;
13445;SDS011;6795;51.232;3.764;2023-04-03T02:59:01;50.37;;;33.97;;
13445;SDS011;6795;51.232;3.764;2023-04-03T03:01:30;51.87;;;34.67;;
13445;SDS011;6795;51.232;3.764;2023-04-03T03:03:59;50.73;;;35.13;;
13445;SDS011;6795;51.232;3.764;2023-04-03T03:06:27;53.63;;;34.53;;
13445;SDS011;6795;51.232;3.764;2023-04-03T03:08:56;52.07;;;36.53;;
13445;SDS011;6795;51.232;3.764;2023-04-03T03:11:24;56.87;;;36.03;;
13445;SDS011;6795;51.232;3.764;2023-04-03T03:13:53;64.97;;;39.90;;
13445;SDS011;6795;51.232;3.764;2023-04-03T03:16:23;55.20;;;39.10;;
13445;SDS011;6795;51.232;3.764;2023-04-03T03:18:51;59.87;;;39.33;;
13445;SDS011;6795;51.232;3.764;2023-04-03T03:21:20;63.50;;;39.50;;
13445;SDS011;6795;51.232;3.764;2023-04-03T03:23:48;65.73;;;38.60;;
13445;SDS011;6795;51.232;3.764;2023-04-03T03:26:17;65.63;;;41.50;;
13445;SDS011;6795;51.232;3.764;2023-04-03T03:28:46;61.80;;;40.67;;
13445;SDS011;6795;51.232;3.764;2023-04-03T03:31:14;59.17;;;43.60;;
13445;SDS011;6795;51.232;3.764;2023-04-03T03:33:44;63.43;;;42.67;;
13445;SDS011;6795;51.232;3.764;2023-04-03T03:36:13;66.37;;;44.33;;
13445;SDS011;6795;51.232;3.764;2023-04-03T03:38:42;67.67;;;44.10;;
13445;SDS011;6795;51.232;3.764;2023-04-03T03:41:11;69.27;;;43.67;;
13445;SDS011;6795;51.232;3.764;2023-04-03T03:43:39;68.43;;;44.03;;
13445;SDS011;6795;51.232;3.764;2023-04-03T03:46:08;72.73;;;44.97;;
13445;SDS011;6795;51.232;3.764;2023-04-03T03:48:37;70.93;;;43.07;;
13445;SDS011;6795;51.232;3.764;2023-04-03T03:51:07;66.70;;;45.00;;
13445;SDS011;6795;51.232;3.764;2023-04-03T03:53:35;65.37;;;43.27;;
13445;SDS011;6795;51.232;3.764;2023-04-03T03:56:04;68.20;;;45.67;;
13445;SDS011;6795;51.232;3.764;2023-04-03T03:58:33;63.93;;;42.13;;
13445;SDS011;6795;51.232;3.764;2023-04-03T04:01:02;65.57;;;43.80;;
13445;SDS011;6795;51.232;3.764;2023-04-03T04:03:32;63.90;;;42.83;;
13445;SDS011;6795;51.232;3.764;2023-04-03T04:06:01;66.80;;;43.50;;
13445;SDS011;6795;51.232;3.764;2023-04-03T04:08:31;68.73;;;45.30;;
13445;SDS011;6795;51.232;3.764;2023-04-03T04:10:59;72.40;;;44.27;;
13445;SDS011;6795;51.232;3.764;2023-04-03T04:13:28;66.30;;;43.53;;
13445;SDS011;6795;51.232;3.764;2023-04-03T04:15:57;63.57;;;43.43;;
13445;SDS011;6795;51.232;3.764;2023-04-03T04:18:25;64.27;;;42.93;;
13445;SDS011;6795;51.232;3.764;2023-04-03T04:20:54;70.93;;;41.27;;
13445;SDS011;6795;51.232;3.764;2023-04-03T04:23:22;69.30;;;42.37;;
13445;SDS011;6795;51.232;3.764;2023-04-03T04:25:52;69.63;;;42.23;;
13445;SDS011;6795;51.232;3.764;2023-04-03T04:28:21;72.70;;;44.67;;
13445;SDS011;6795;51.232;3.764;2023-04-03T04:30:50;80.90;;;44.67;;
13445;SDS011;6795;51.232;3.764;2023-04-03T04:33:18;69.27;;;43.93;;
13445;SDS011;6795;51.232;3.764;2023-04-03T04:35:47;75.07;;;44.47;;
13445;SDS011;6795;51.232;3.764;2023-04-03T04:38:16;75.47;;;44.73;;
13445;SDS011;6795;51.232;3.764;2023-04-03T04:40:45;79.83;;;45.30;;
13445;SDS011;6795;51.232;3.764;2023-04-03T04:43:16;73.70;;;43.40;;
13445;SDS011;6795;51.232;3.764;2023-04-03T04:45:45;75.17;;;45.17;;
13445;SDS011;6795;51.232;3.764;2023-04-03T04:48:13;77.93;;;43.83;;
13445;SDS011;6795;51.232;3.764;2023-04-03T04:50:42;78.87;;;44.27;;
13445;SDS011;6795;51.232;3.764;2023-04-03T04:53:11;72.97;;;43.73;;
13445;SDS011;6795;51.232;3.764;2023-04-03T05:03:38;78.57;;;41.10;;
13445;SDS011;6795;51.232;3.764;2023-04-03T05:06:06;84.40;;;45.17;;
13445;SDS011;6795;51.232;3.764;2023-04-03T05:08:35;75.93;;;46.47;;
13445;SDS011;6795;51.232;3.764;2023-04-03T05:11:03;76.83;;;45.47;;
13445;SDS011;6795;51.232;3.764;2023-04-03T05:13:32;75.70;;;46.03;;
13445;SDS011;6795;51.232;3.764;2023-04-03T05:16:00;83.20;;;45.70;;
13445;SDS011;6795;51.232;3.764;2023-04-03T05:18:29;80.60;;;47.70;;
13445;SDS011;6795;51.232;3.764;2023-04-03T05:20:59;75.07;;;45.10;;
13445;SDS011;6795;51.232;3.764;2023-04-03T05:23:28;77.93;;;48.27;;
13445;SDS011;6795;51.232;3.764;2023-04-03T05:25:57;72.87;;;48.90;;
13445;SDS011;6795;51.232;3.764;2023-04-03T05:28:25;81.30;;;51.10;;
13445;SDS011;6795;51.232;3.764;2023-04-03T05:30:54;71.43;;;47.87;;
13445;SDS011;6795;51.232;3.764;2023-04-03T05:33:23;71.00;;;45.97;;
13445;SDS011;6795;51.232;3.764;2023-04-03T05:35:52;73.50;;;46.93;;
13445;SDS011;6795;51.232;3.764;2023-04-03T05:38:23;77.77;;;48.20;;
13445;SDS011;6795;51.232;3.764;2023-04-03T05:40:51;66.93;;;47.07;;
13445;SDS011;6795;51.232;3.764;2023-04-03T05:43:20;71.27;;;48.50;;
13445;SDS011;6795;51.232;3.764;2023-04-03T05:45:49;76.30;;;50.93;;
13445;SDS011;6795;51.232;3.764;2023-04-03T05:48:17;69.63;;;50.57;;
13445;SDS011;6795;51.232;3.764;2023-04-03T05:50:46;72.37;;;53.07;;
13445;SDS011;6795;51.232;3.764;2023-04-03T05:53:15;68.03;;;50.47;;
13445;SDS011;6795;51.232;3.764;2023-04-03T05:55:47;66.40;;;48.37;;
13445;SDS011;6795;51.232;3.764;2023-04-03T05:58:15;66.97;;;49.50;;
13445;SDS011;6795;51.232;3.764;2023-04-03T06:00:44;61.37;;;47.97;;
13445;SDS011;6795;51.232;3.764;2023-04-03T06:03:14;59.83;;;48.00;;
13445;SDS011;6795;51.232;3.764;2023-04-03T06:05:43;62.17;;;47.80;;
13445;SDS011;6795;51.232;3.764;2023-04-03T06:08:12;55.93;;;45.67;;
13445;SDS011;6795;51.232;3.764;2023-04-03T06:10:41;54.93;;;42.23;;
13445;SDS011;6795;51.232;3.764;2023-04-03T06:13:11;41.37;;;36.30;;
13445;SDS011;6795;51.232;3.764;2023-04-03T06:15:40;39.07;;;34.93;;
13445;SDS011;6795;51.232;3.764;2023-04-03T06:18:09;40.57;;;32.27;;
13445;SDS011;6795;51.232;3.764;2023-04-03T06:20:37;34.73;;;30.13;;
13445;SDS011;6795;51.232;3.764;2023-04-03T06:23:06;29.87;;;26.67;;
13445;SDS011;6795;51.232;3.764;2023-04-03T06:25:35;31.10;;;27.90;;
13445;SDS011;6795;51.232;3.764;2023-04-03T06:28:04;27.87;;;25.03;;
13445;SDS011;6795;51.232;3.764;2023-04-03T06:30:37;29.03;;;25.20;;
13445;SDS011;6795;51.232;3.764;2023-04-03T06:33:06;28.90;;;23.70;;
13445;SDS011;6795;51.232;3.764;2023-04-03T06:35:35;25.07;;;21.97;;
13445;SDS011;6795;51.232;3.764;2023-04-03T06:38:05;28.67;;;19.53;;
13445;SDS011;6795;51.232;3.764;2023-04-03T06:40:36;24.83;;;21.23;;
13445;SDS011;6795;51.232;3.764;2023-04-03T06:43:05;24.93;;;20.63;;
13445;SDS011;6795;51.232;3.764;2023-04-03T06:45:33;22.60;;;20.23;;
13445;SDS011;6795;51.232;3.764;2023-04-03T06:48:04;22.63;;;19.73;;
13445;SDS011;6795;51.232;3.764;2023-04-03T06:50:33;19.67;;;17.70;;
13445;SDS011;6795;51.232;3.764;2023-04-03T06:53:02;21.13;;;18.93;;
13445;SDS011;6795;51.232;3.764;2023-04-03T06:55:30;21.03;;;18.87;;
13445;SDS011;6795;51.232;3.764;2023-04-03T06:57:58;19.23;;;17.43;;
13445;SDS011;6795;51.232;3.764;2023-04-03T07:00:27;18.67;;;16.83;;
13445;SDS011;6795;51.232;3.764;2023-04-03T07:02:55;17.00;;;15.30;;
13445;SDS011;6795;51.232;3.764;2023-04-03T07:05:25;15.77;;;14.23;;
13445;SDS011;6795;51.232;3.764;2023-04-03T07:07:54;16.07;;;14.37;;
13445;SDS011;6795;51.232;3.764;2023-04-03T07:10:22;17.97;;;13.93;;
13445;SDS011;6795;51.232;3.764;2023-04-03T07:12:51;15.50;;;13.97;;
13445;SDS011;6795;51.232;3.764;2023-04-03T07:15:20;12.80;;;11.60;;
13445;SDS011;6795;51.232;3.764;2023-04-03T07:17:48;14.73;;;11.47;;
13445;SDS011;6795;51.232;3.764;2023-04-03T07:20:17;12.77;;;11.50;;
13445;SDS011;6795;51.232;3.764;2023-04-03T07:22:47;17.97;;;12.37;;
13445;SDS011;6795;51.232;3.764;2023-04-03T07:25:15;18.00;;;11.43;;
13445;SDS011;6795;51.232;3.764;2023-04-03T07:27:43;15.90;;;12.13;;
13445;SDS011;6795;51.232;3.764;2023-04-03T07:30:12;12.63;;;10.82;;
13445;SDS011;6795;51.232;3.764;2023-04-03T07:32:41;26.75;;;11.90;;
13445;SDS011;6795;51.232;3.764;2023-04-03T07:35:10;11.57;;;9.57;;
13445;SDS011;6795;51.232;3.764;2023-04-03T07:37:39;13.30;;;10.15;;
13445;SDS011;6795;51.232;3.764;2023-04-03T07:40:11;7.60;;;6.75;;
13445;SDS011;6795;51.232;3.764;2023-04-03T07:42:40;8.00;;;7.10;;
13445;SDS011;6795;51.232;3.764;2023-04-03T07:45:08;8.20;;;5.85;;
13445;SDS011;6795;51.232;3.764;2023-04-03T07:47:38;7.10;;;5.72;;
13445;SDS011;6795;51.232;3.764;2023-04-03T07:50:07;9.68;;;6.10;;
13445;SDS011;6795;51.232;3.764;2023-04-03T07:52:36;8.30;;;5.50;;
13445;SDS011;6795;51.232;3.764;2023-04-03T07:55:05;7.93;;;5.22;;
13445;SDS011;6795;51.232;3.764;2023-04-03T07:57:35;7.47;;;6.13;;
13445;SDS011;6795;51.232;3.764;2023-04-03T08:00:04;9.48;;;4.97;;
13445;SDS011;6795;51.232;3.764;2023-04-03T08:02:33;15.15;;;5.30;;
13445;SDS011;6795;51.232;3.764;2023-04-03T08:05:02;5.88;;;4.25;;
13445;SDS011;6795;51.232;3.764;2023-04-03T08:07:31;4.82;;;4.03;;
13445;SDS011;6795;51.232;3.764;2023-04-03T08:10:00;5.80;;;3.55;;
13445;SDS011;6795;51.232;3.764;2023-04-03T08:12:28;5.47;;;3.47;;
13445;SDS011;6795;51.232;3.764;2023-04-03T08:15:00;8.48;;;3.33;;
13445;SDS011;6795;51.232;3.764;2023-04-03T08:17:29;3.10;;;2.80;;
13445;SDS011;6795;51.232;3.764;2023-04-03T08:19:58;3.97;;;2.40;;
13445;SDS011;6795;51.232;3.764;2023-04-03T08:22:26;5.32;;;3.20;;
13445;SDS011;6795;51.232;3.764;2023-04-03T08:24:55;2.30;;;2.10;;
13445;SDS011;6795;51.232;3.764;2023-04-03T08:27:25;3.53;;;2.42;;
13445;SDS011;6795;51.232;3.764;2023-04-03T08:29:54;9.18;;;2.05;;
13445;SDS011;6795;51.232;3.764;2023-04-03T08:32:25;3.22;;;2.55;;
13445;SDS011;6795;51.232;3.764;2023-04-03T08:34:53;4.20;;;2.08;;
13445;SDS011;6795;51.232;3.764;2023-04-03T08:37:22;3.65;;;2.22;;
13445;SDS011;6795;51.232;3.764;2023-04-03T08:39:50;2.95;;;1.70;;
13445;SDS011;6795;51.232;3.764;2023-04-03T08:42:27;2.40;;;1.58;;
13445;SDS011;6795;51.232;3.764;2023-04-03T08:45:01;5.32;;;2.58;;
13445;SDS011;6795;51.232;3.764;2023-04-03T08:47:36;6.53;;;2.15;;
13445;SDS011;6795;51.232;3.764;2023-04-03T08:50:07;3.55;;;1.50;;
13445;SDS011;6795;51.232;3.764;2023-04-03T08:52:37;4.82;;;1.23;;
13445;SDS011;6795;51.232;3.764;2023-04-03T08:55:07;1.60;;;1.00;;
13445;SDS011;6795;51.232;3.764;2023-04-03T08:57:42;4.32;;;0.73;;
13445;SDS011;6795;51.232;3.764;2023-04-03T09:00:15;2.58;;;0.80;;
13445;SDS011;6795;51.232;3.764;2023-04-03T09:02:47;2.38;;;0.93;;
13445;SDS011;6795;51.232;3.764;2023-04-03T09:05:17;5.18;;;1.02;;
13445;SDS011;6795;51.232;3.764;2023-04-03T09:07:49;3.30;;;1.38;;
13445;SDS011;6795;51.232;3.764;2023-04-03T09:10:23;3.80;;;1.08;;
13445;SDS011;6795;51.232;3.764;2023-04-03T09:12:57;2.78;;;0.80;;
13445;SDS011;6795;51.232;3.764;2023-04-03T09:15:29;1.60;;;0.70;;
13445;SDS011;6795;51.232;3.764;2023-04-03T09:18:08;4.75;;;0.70;;
13445;SDS011;6795;51.232;3.764;2023-04-03T09:20:44;2.90;;;0.57;;
13445;SDS011;6795;51.232;3.764;2023-04-03T09:23:17;2.22;;;0.50;;
13445;SDS011;6795;51.232;3.764;2023-04-03T09:25:51;3.30;;;0.98;;
13445;SDS011;6795;51.232;3.764;2023-04-03T09:28:24;4.38;;;0.57;;
13445;SDS011;6795;51.232;3.764;2023-04-03T09:30:54;1.25;;;0.85;;
13445;SDS011;6795;51.232;3.764;2023-04-03T09:33:24;4.78;;;0.75;;
13445;SDS011;6795;51.232;3.764;2023-04-03T09:35:53;2.33;;;0.52;;
13445;SDS011;6795;51.232;3.764;2023-04-03T09:38:21;1.33;;;0.57;;
13445;SDS011;6795;51.232;3.764;2023-04-03T09:41:03;2.22;;;0.52;;
13445;SDS011;6795;51.232;3.764;2023-04-03T09:43:33;1.58;;;0.50;;
13445;SDS011;6795;51.232;3.764;2023-04-03T09:48:57;1.13;;;0.65;;
13445;SDS011;6795;51.232;3.764;2023-04-03T09:51:35;2.33;;;0.70;;
13445;SDS011;6795;51.232;3.764;2023-04-03T09:54:24;2.35;;;0.50;;
13445;SDS011;6795;51.232;3.764;2023-04-03T09:57:05;1.92;;;0.60;;
13445;SDS011;6795;51.232;3.764;2023-04-03T09:59:38;2.45;;;0.75;;
13445;SDS011;6795;51.232;3.764;2023-04-03T10:02:28;2.97;;;0.60;;
13445;SDS011;6795;51.232;3.764;2023-04-03T10:05:02;0.70;;;0.50;;
13445;SDS011;6795;51.232;3.764;2023-04-03T10:07:36;1.75;;;0.50;;
13445;SDS011;6795;51.232;3.764;2023-04-03T10:10:16;1.05;;;0.40;;
13445;SDS011;6795;51.232;3.764;2023-04-03T10:13:03;3.67;;;0.43;;
13445;SDS011;6795;51.232;3.764;2023-04-03T10:15:36;1.85;;;0.63;;
13445;SDS011;6795;51.232;3.764;2023-04-03T10:18:16;1.48;;;0.52;;
13445;SDS011;6795;51.232;3.764;2023-04-03T10:21:02;0.60;;;0.35;;
13445;SDS011;6795;51.232;3.764;2023-04-03T10:23:44;1.10;;;0.50;;
13445;SDS011;6795;51.232;3.764;2023-04-03T10:26:17;2.97;;;0.88;;
13445;SDS011;6795;51.232;3.764;2023-04-03T10:28:56;0.95;;;0.40;;
13445;SDS011;6795;51.232;3.764;2023-04-03T10:31:32;1.40;;;0.50;;
13445;SDS011;6795;51.232;3.764;2023-04-03T10:34:05;1.20;;;0.43;;
13445;SDS011;6795;51.232;3.764;2023-04-03T10:36:41;2.92;;;0.45;;
13445;SDS011;6795;51.232;3.764;2023-04-03T10:39:17;1.13;;;0.47;;
13445;SDS011;6795;51.232;3.764;2023-04-03T10:41:57;3.85;;;0.60;;
13445;SDS011;6795;51.232;3.764;2023-04-03T10:44:48;1.70;;;0.57;;
13445;SDS011;6795;51.232;3.764;2023-04-03T10:47:41;2.00;;;0.50;;
13445;SDS011;6795;51.232;3.764;2023-04-03T10:50:23;2.83;;;0.60;;
13445;SDS011;6795;51.232;3.764;2023-04-03T10:52:57;1.30;;;0.40;;
13445;SDS011;6795;51.232;3.764;2023-04-03T10:55:31;1.65;;;0.60;;
13445;SDS011;6795;51.232;3.764;2023-04-03T10:58:03;4.07;;;0.57;;
13445;SDS011;6795;51.232;3.764;2023-04-03T11:00:35;1.13;;;0.40;;
13445;SDS011;6795;51.232;3.764;2023-04-03T11:03:07;2.03;;;0.47;;
13445;SDS011;6795;51.232;3.764;2023-04-03T11:05:39;3.08;;;0.50;;
13445;SDS011;6795;51.232;3.764;2023-04-03T11:08:13;0.95;;;0.50;;
13445;SDS011;6795;51.232;3.764;2023-04-03T11:10:44;1.20;;;0.50;;
13445;SDS011;6795;51.232;3.764;2023-04-03T11:13:14;2.03;;;0.45;;
13445;SDS011;6795;51.232;3.764;2023-04-03T11:15:44;0.50;;;0.30;;
13445;SDS011;6795;51.232;3.764;2023-04-03T11:18:13;1.42;;;0.40;;
13445;SDS011;6795;51.232;3.764;2023-04-03T11:20:47;2.13;;;0.68;;
13445;SDS011;6795;51.232;3.764;2023-04-03T11:23:21;1.38;;;0.63;;
13445;SDS011;6795;51.232;3.764;2023-04-03T11:25:51;1.67;;;0.25;;
13445;SDS011;6795;51.232;3.764;2023-04-03T11:28:21;0.52;;;0.30;;
13445;SDS011;6795;51.232;3.764;2023-04-03T11:30:52;0.75;;;0.25;;
13445;SDS011;6795;51.232;3.764;2023-04-03T11:33:37;0.75;;;0.30;;
13445;SDS011;6795;51.232;3.764;2023-04-03T11:36:08;1.00;;;0.50;;
13445;SDS011;6795;51.232;3.764;2023-04-03T11:38:58;0.90;;;0.40;;
13445;SDS011;6795;51.232;3.764;2023-04-03T11:41:28;1.83;;;0.30;;
13445;SDS011;6795;51.232;3.764;2023-04-03T11:43:58;0.88;;;0.30;;
13445;SDS011;6795;51.232;3.764;2023-04-03T11:55:43;0.68;;;0.47;;
13445;SDS011;6795;51.232;3.764;2023-04-03T11:58:14;1.13;;;0.28;;
13445;SDS011;6795;51.232;3.764;2023-04-03T12:00:48;0.20;;;0.20;;
13445;SDS011;6795;51.232;3.764;2023-04-03T12:12:59;3.65;;;0.30;;
13445;SDS011;6795;51.232;3.764;2023-04-03T12:24:34;2.47;;;0.30;;
13445;SDS011;6795;51.232;3.764;2023-04-03T12:27:21;1.27;;;0.30;;
13445;SDS011;6795;51.232;3.764;2023-04-03T12:29:58;1.95;;;0.20;;
13445;SDS011;6795;51.232;3.764;2023-04-03T12:32:35;0.20;;;0.20;;
13445;SDS011;6795;51.232;3.764;2023-04-03T12:35:36;0.90;;;0.22;;
13445;SDS011;6795;51.232;3.764;2023-04-03T12:38:15;1.05;;;0.25;;
13445;SDS011;6795;51.232;3.764;2023-04-03T12:41:07;3.58;;;0.30;;
13445;SDS011;6795;51.232;3.764;2023-04-03T12:43:48;1.60;;;0.30;;
13445;SDS011;6795;51.232;3.764;2023-04-03T12:46:28;1.58;;;0.20;;
13445;SDS011;6795;51.232;3.764;2023-04-03T12:49:10;0.35;;;0.30;;
13445;SDS011;6795;51.232;3.764;2023-04-03T12:51:50;0.40;;;0.40;;
13445;SDS011;6795;51.232;3.764;2023-04-03T12:54:19;0.30;;;0.30;;
13445;SDS011;6795;51.232;3.764;2023-04-03T12:56:51;0.38;;;0.38;;
13445;SDS011;6795;51.232;3.764;2023-04-03T12:59:36;0.50;;;0.43;;
13445;SDS011;6795;51.232;3.764;2023-04-03T13:02:10;0.75;;;0.40;;
13445;SDS011;6795;51.232;3.764;2023-04-03T13:04:54;0.43;;;0.43;;
13445;SDS011;6795;51.232;3.764;2023-04-03T13:07:27;0.30;;;0.20;;
13445;SDS011;6795;51.232;3.764;2023-04-03T13:10:02;1.35;;;0.20;;
13445;SDS011;6795;51.232;3.764;2023-04-03T13:12:46;2.10;;;0.40;;
13445;SDS011;6795;51.232;3.764;2023-04-03T13:15:18;1.92;;;0.30;;
13445;SDS011;6795;51.232;3.764;2023-04-03T13:17:50;1.63;;;0.35;;
13445;SDS011;6795;51.232;3.764;2023-04-03T13:20:21;1.10;;;0.30;;
13445;SDS011;6795;51.232;3.764;2023-04-03T13:22:54;0.20;;;0.20;;
13445;SDS011;6795;51.232;3.764;2023-04-03T13:25:26;0.73;;;0.20;;
13445;SDS011;6795;51.232;3.764;2023-04-03T13:27:57;0.20;;;0.20;;
13445;SDS011;6795;51.232;3.764;2023-04-03T13:30:39;0.88;;;0.40;;
13445;SDS011;6795;51.232;3.764;2023-04-03T13:33:24;0.30;;;0.30;;
13445;SDS011;6795;51.232;3.764;2023-04-03T13:35:54;0.30;;;0.30;;
13445;SDS011;6795;51.232;3.764;2023-04-03T13:38:25;0.30;;;0.10;;
13445;SDS011;6795;51.232;3.764;2023-04-03T13:40:59;0.65;;;0.30;;
13445;SDS011;6795;51.232;3.764;2023-04-03T13:43:30;0.50;;;0.20;;
13445;SDS011;6795;51.232;3.764;2023-04-03T13:46:02;1.48;;;0.28;;
13445;SDS011;6795;51.232;3.764;2023-04-03T13:48:38;1.75;;;0.20;;
13445;SDS011;6795;51.232;3.764;2023-04-03T13:51:17;0.85;;;0.30;;
13445;SDS011;6795;51.232;3.764;2023-04-03T13:53:49;0.47;;;0.40;;
13445;SDS011;6795;51.232;3.764;2023-04-03T13:56:21;0.80;;;0.32;;
13445;SDS011;6795;51.232;3.764;2023-04-03T13:58:55;2.15;;;0.30;;
13445;SDS011;6795;51.232;3.764;2023-04-03T14:01:34;3.25;;;0.57;;
13445;SDS011;6795;51.232;3.764;2023-04-03T14:04:17;0.93;;;0.32;;
13445;SDS011;6795;51.232;3.764;2023-04-03T14:06:47;0.82;;;0.40;;
13445;SDS011;6795;51.232;3.764;2023-04-03T14:09:16;2.20;;;0.47;;
13445;SDS011;6795;51.232;3.764;2023-04-03T14:11:46;0.80;;;0.30;;
13445;SDS011;6795;51.232;3.764;2023-04-03T14:14:17;2.05;;;0.20;;
13445;SDS011;6795;51.232;3.764;2023-04-03T14:16:49;0.68;;;0.52;;
13445;SDS011;6795;51.232;3.764;2023-04-03T14:19:22;0.47;;;0.25;;
13445;SDS011;6795;51.232;3.764;2023-04-03T14:21:52;2.58;;;0.40;;
13445;SDS011;6795;51.232;3.764;2023-04-03T14:24:23;0.77;;;0.40;;
13445;SDS011;6795;51.232;3.764;2023-04-03T14:26:52;0.43;;;0.40;;
13445;SDS011;6795;51.232;3.764;2023-04-03T14:29:21;0.95;;;0.50;;
13445;SDS011;6795;51.232;3.764;2023-04-03T14:31:50;1.85;;;0.30;;
13445;SDS011;6795;51.232;3.764;2023-04-03T14:34:38;1.08;;;0.25;;
13445;SDS011;6795;51.232;3.764;2023-04-03T14:37:09;1.50;;;0.40;;
13445;SDS011;6795;51.232;3.764;2023-04-03T14:39:37;0.88;;;0.40;;
13445;SDS011;6795;51.232;3.764;2023-04-03T14:42:10;0.60;;;0.20;;
13445;SDS011;6795;51.232;3.764;2023-04-03T14:44:40;1.98;;;0.30;;
13445;SDS011;6795;51.232;3.764;2023-04-03T14:47:10;0.52;;;0.30;;
13445;SDS011;6795;51.232;3.764;2023-04-03T14:49:57;1.15;;;0.20;;
13445;SDS011;6795;51.232;3.764;2023-04-03T14:52:27;0.63;;;0.35;;
13445;SDS011;6795;51.232;3.764;2023-04-03T14:54:57;1.95;;;0.30;;
13445;SDS011;6795;51.232;3.764;2023-04-03T14:57:27;1.27;;;0.30;;
13445;SDS011;6795;51.232;3.764;2023-04-03T14:59:56;0.60;;;0.30;;
13445;SDS011;6795;51.232;3.764;2023-04-03T15:02:26;0.20;;;0.20;;
13445;SDS011;6795;51.232;3.764;2023-04-03T15:04:57;0.40;;;0.30;;
13445;SDS011;6795;51.232;3.764;2023-04-03T15:07:27;1.33;;;0.20;;
13445;SDS011;6795;51.232;3.764;2023-04-03T15:09:57;1.85;;;0.47;;
13445;SDS011;6795;51.232;3.764;2023-04-03T15:12:25;1.02;;;0.30;;
13445;SDS011;6795;51.232;3.764;2023-04-03T15:14:54;0.75;;;0.20;;
13445;SDS011;6795;51.232;3.764;2023-04-03T15:17:28;3.33;;;0.22;;
13445;SDS011;6795;51.232;3.764;2023-04-03T15:19:59;0.35;;;0.20;;
13445;SDS011;6795;51.232;3.764;2023-04-03T15:22:28;0.30;;;0.20;;
13445;SDS011;6795;51.232;3.764;2023-04-03T15:24:56;6.72;;;3.63;;
13445;SDS011;6795;51.232;3.764;2023-04-03T15:27:25;1.00;;;0.50;;
13445;SDS011;6795;51.232;3.764;2023-04-03T15:29:54;1.05;;;0.30;;
13445;SDS011;6795;51.232;3.764;2023-04-03T15:32:22;1.00;;;0.45;;
13445;SDS011;6795;51.232;3.764;2023-04-03T15:34:51;0.20;;;0.20;;
13445;SDS011;6795;51.232;3.764;2023-04-03T15:37:23;1.30;;;0.47;;
13445;SDS011;6795;51.232;3.764;2023-04-03T15:39:52;1.58;;;0.30;;
13445;SDS011;6795;51.232;3.764;2023-04-03T15:42:21;2.50;;;1.40;;
13445;SDS011;6795;51.232;3.764;2023-04-03T15:44:50;2.15;;;0.90;;
13445;SDS011;6795;51.232;3.764;2023-04-03T15:47:19;2.00;;;0.50;;
13445;SDS011;6795;51.232;3.764;2023-04-03T15:49:48;1.35;;;0.30;;
13445;SDS011;6795;51.232;3.764;2023-04-03T15:52:17;3.00;;;0.70;;
13445;SDS011;6795;51.232;3.764;2023-04-03T15:54:47;0.35;;;0.20;;